createdAt,value
2023-05-18T00:01:45.009Z,90.19
2023-05-18T00:05:08.882Z,90.38
2023-05-18T00:08:31.715Z,90.57
2023-05-18T00:11:54.043Z,90.84
2023-05-18T00:15:15.962Z,90.21
2023-05-18T00:18:37.744Z,89.87
2023-05-18T00:22:02.387Z,90.20
2023-05-18T00:25:24.155Z,89.55
2023-05-18T00:28:45.974Z,90.20
2023-05-18T00:32:08.972Z,91.43
2023-05-18T00:35:32.876Z,92.07
2023-05-18T00:38:54.542Z,91.85
2023-05-18T00:42:16.217Z,91.11
2023-05-18T00:45:40.154Z,91.79
2023-05-18T00:49:02.623Z,91.98
2023-05-18T00:52:24.506Z,92.44
2023-05-18T00:55:46.420Z,92.30
2023-05-18T00:59:10.448Z,91.84
2023-05-18T01:02:32.417Z,92.32
2023-05-18T01:05:58.263Z,92.09
2023-05-18T01:09:22.679Z,91.74
2023-05-18T01:13:01.194Z,91.71
2023-05-18T01:16:28.005Z,91.89
2023-05-18T01:20:15.650Z,92.35
2023-05-18T01:23:56.670Z,92.53
2023-05-18T01:27:24.645Z,92.22
2023-05-18T01:30:46.692Z,92.18
2023-05-18T01:34:08.321Z,92.59
2023-05-18T01:37:29.964Z,92.00
2023-05-18T01:41:00.666Z,92.75
2023-05-18T01:44:39.913Z,92.08
2023-05-18T01:48:02.458Z,92.40
2023-05-18T01:51:32.462Z,92.44
2023-05-18T01:54:56.397Z,92.88
2023-05-18T01:58:19.187Z,92.21
2023-05-18T02:01:43.022Z,92.07
2023-05-18T02:05:05.867Z,93.21
2023-05-18T02:08:29.534Z,93.37
2023-05-18T02:11:51.377Z,93.48
2023-05-18T02:15:13.040Z,93.91
2023-05-18T02:18:36.950Z,93.67
2023-05-18T02:21:58.921Z,93.05
2023-05-18T02:25:21.197Z,92.81
2023-05-18T02:28:44.821Z,92.80
2023-05-18T02:32:07.021Z,92.48
2023-05-18T02:35:31.697Z,92.85
2023-05-18T02:38:53.594Z,93.07
2023-05-18T02:42:17.448Z,92.70
2023-05-18T02:45:41.842Z,93.10
2023-05-18T02:49:03.495Z,92.92
2023-05-18T02:52:26.016Z,92.51
2023-05-18T02:55:48.875Z,93.44
2023-05-18T02:59:13.032Z,92.93
2023-05-18T03:02:38.839Z,92.60
2023-05-18T03:06:02.818Z,91.88
2023-05-18T03:09:24.585Z,91.98
2023-05-18T03:12:46.905Z,93.15
2023-05-18T03:16:08.472Z,92.53
2023-05-18T03:19:32.516Z,92.62
2023-05-18T03:22:54.133Z,92.51
2023-05-18T03:26:16.758Z,92.19
2023-05-18T03:29:38.485Z,91.95
2023-05-18T03:33:01.942Z,92.30
2023-05-18T03:36:25.416Z,92.60
2023-05-18T03:39:47.022Z,93.32
2023-05-18T03:43:11.322Z,91.91
2023-05-18T03:46:35.698Z,92.40
2023-05-18T03:49:57.358Z,92.84
2023-05-18T03:53:22.336Z,92.49
2023-05-18T03:56:47.072Z,92.93
2023-05-18T04:00:13.127Z,92.71
2023-05-18T04:03:37.777Z,93.24
2023-05-18T04:07:02.701Z,93.10
2023-05-18T04:10:26.946Z,93.41
2023-05-18T04:13:49.853Z,93.39
2023-05-18T04:17:13.720Z,93.37
2023-05-18T04:20:38.065Z,93.51
2023-05-18T04:24:02.943Z,93.17
2023-05-18T04:27:25.091Z,93.09
2023-05-18T04:30:47.646Z,91.78
2023-05-18T04:34:09.316Z,92.18
2023-05-18T04:37:31.321Z,92.17
2023-05-18T04:40:57.484Z,92.96
2023-05-18T04:44:24.213Z,92.99
2023-05-18T04:47:47.264Z,93.29
2023-05-18T04:51:09.134Z,93.16
2023-05-18T04:54:31.586Z,93.23
2023-05-18T04:57:56.976Z,93.35
2023-05-18T05:01:18.971Z,92.87
2023-05-18T05:04:41.909Z,92.55
2023-05-18T05:08:05.009Z,92.14
2023-05-18T05:11:26.637Z,92.58
2023-05-18T05:14:50.524Z,93.13
2023-05-18T05:18:12.244Z,92.24
2023-05-18T05:21:34.259Z,92.97
2023-05-18T05:24:55.985Z,91.62
2023-05-18T05:28:17.679Z,92.48
2023-05-18T05:31:39.474Z,92.42
2023-05-18T05:35:01.267Z,92.03
2023-05-18T05:38:22.862Z,92.03
2023-05-18T05:41:44.500Z,92.75
2023-05-18T05:45:06.818Z,92.17
2023-05-18T05:48:28.489Z,92.33
2023-05-18T05:51:52.605Z,92.32
2023-05-18T05:55:14.771Z,91.56
2023-05-18T05:58:36.419Z,91.65
2023-05-18T06:02:02.917Z,91.92
2023-05-18T06:05:27.621Z,92.38
2023-05-18T06:08:49.579Z,92.01
2023-05-18T06:12:13.491Z,91.61
2023-05-18T06:15:35.157Z,92.39
2023-05-18T06:18:56.883Z,92.63
2023-05-18T06:22:21.640Z,93.16
2023-05-18T06:25:43.235Z,92.24
2023-05-18T06:29:05.738Z,92.21
2023-05-18T06:32:27.649Z,92.00
2023-05-18T06:35:49.615Z,92.45
2023-05-18T06:39:11.246Z,92.48
2023-05-18T06:42:33.402Z,92.79
2023-05-18T06:45:58.261Z,92.84
2023-05-18T06:49:19.996Z,92.69
2023-05-18T06:52:41.710Z,92.83
2023-05-18T06:56:05.488Z,93.21
2023-05-18T06:59:27.078Z,93.35
2023-05-18T07:02:51.043Z,92.44
2023-05-18T07:06:12.744Z,92.53
2023-05-18T07:09:37.406Z,92.42
2023-05-18T07:13:01.361Z,93.33
2023-05-18T07:16:26.073Z,92.59
2023-05-18T07:19:50.430Z,93.16
2023-05-18T07:23:17.104Z,92.90
2023-05-18T07:26:41.009Z,93.87
2023-05-18T07:30:02.661Z,93.43
2023-05-18T07:33:24.297Z,92.93
2023-05-18T07:36:45.934Z,92.93
2023-05-18T07:40:09.869Z,93.03
2023-05-18T07:43:33.892Z,93.38
2023-05-18T07:46:57.777Z,93.39
2023-05-18T07:50:19.474Z,93.18
2023-05-18T07:53:41.605Z,92.42
2023-05-18T07:57:05.955Z,93.93
2023-05-18T08:00:33.957Z,94.37
2023-05-18T08:03:56.369Z,93.63
2023-05-18T08:07:18.490Z,92.74
2023-05-18T08:10:43.464Z,92.90
2023-05-18T08:14:05.388Z,93.24
2023-05-18T08:17:27.074Z,93.50
2023-05-18T08:20:54.018Z,92.99
2023-05-18T08:24:15.729Z,93.32
2023-05-18T08:27:37.517Z,92.96
2023-05-18T08:31:01.433Z,92.24
2023-05-18T08:34:25.452Z,92.29
2023-05-18T08:37:47.234Z,93.18
2023-05-18T08:41:21.084Z,92.73
2023-05-18T08:44:57.198Z,92.75
2023-05-18T08:48:28.411Z,92.85
2023-05-18T08:52:05.551Z,92.61
2023-05-18T08:55:34.671Z,92.17
2023-05-18T08:58:57.238Z,92.72
2023-05-18T09:02:21.545Z,92.77
2023-05-18T09:05:43.317Z,92.58
2023-05-18T09:09:09.643Z,92.21
2023-05-18T09:12:33.476Z,92.28
2023-05-18T09:15:55.150Z,91.63
2023-05-18T09:19:16.954Z,91.51
2023-05-18T09:22:41.585Z,90.72
2023-05-18T09:26:10.046Z,91.99
2023-05-18T09:29:33.597Z,91.80
2023-05-18T09:32:55.768Z,93.05
2023-05-18T09:36:20.326Z,91.05
2023-05-18T09:39:45.339Z,90.98
2023-05-18T09:43:07.871Z,90.48
2023-05-18T09:46:35.133Z,91.13
2023-05-18T09:49:57.897Z,90.88
2023-05-18T09:53:21.806Z,91.79
2023-05-18T09:56:55.306Z,91.40
2023-05-18T10:00:33.279Z,90.93
2023-05-18T10:04:03.981Z,91.34
2023-05-18T10:07:26.036Z,90.00
2023-05-18T10:10:49.551Z,89.88
2023-05-18T10:14:12.200Z,91.18
2023-05-18T10:17:37.783Z,91.38
2023-05-18T10:21:01.389Z,90.75
2023-05-18T10:24:24.797Z,90.88
2023-05-18T10:27:49.081Z,88.90
2023-05-18T10:31:15.506Z,91.02
2023-05-18T10:34:38.342Z,90.15
2023-05-18T10:38:01.710Z,90.38
2023-05-18T10:41:24.231Z,89.58
2023-05-18T10:44:47.883Z,87.63
2023-05-18T10:48:12.783Z,90.05
2023-05-18T10:51:35.687Z,86.44
2023-05-18T10:55:01.252Z,85.29
2023-05-18T10:58:26.381Z,86.31
2023-05-18T11:01:50.398Z,88.91
2023-05-18T11:05:12.682Z,88.63
2023-05-18T11:08:37.205Z,89.99
2023-05-18T11:12:00.272Z,88.90
2023-05-18T11:15:56.652Z,89.53
2023-05-18T11:19:20.460Z,89.80
2023-05-18T11:22:54.156Z,89.66
2023-05-18T11:26:18.568Z,88.89
2023-05-18T11:29:57.746Z,89.53
2023-05-18T11:33:33.198Z,89.85
2023-05-18T11:36:57.438Z,89.49
2023-05-18T11:40:47.344Z,90.39
2023-05-18T11:44:11.976Z,90.17
2023-05-18T11:47:33.844Z,88.46
2023-05-18T11:50:58.738Z,89.59
2023-05-18T11:54:22.935Z,90.06
2023-05-18T11:57:47.746Z,89.65
2023-05-18T12:01:15.425Z,88.51
2023-05-18T12:04:43.613Z,87.12
2023-05-18T12:08:05.253Z,87.23
2023-05-18T12:11:29.646Z,87.29
2023-05-18T12:14:57.455Z,88.00
2023-05-18T12:18:19.438Z,86.59
2023-05-18T12:21:41.120Z,87.89
2023-05-18T12:25:02.873Z,88.48
2023-05-18T12:28:24.557Z,85.94
2023-05-18T12:31:47.509Z,86.15
2023-05-18T12:35:11.625Z,87.27
2023-05-18T12:38:37.955Z,86.78
2023-05-18T12:42:15.541Z,86.60
2023-05-18T12:45:40.913Z,87.58
2023-05-18T12:49:04.497Z,86.88
2023-05-18T12:52:28.489Z,86.12
2023-05-18T12:55:59.802Z,86.68
2023-05-18T12:59:21.876Z,86.98
2023-05-18T13:02:43.565Z,87.46
2023-05-18T13:06:10.183Z,87.08
2023-05-18T13:09:44.750Z,94.60
2023-05-18T13:13:09.861Z,88.57
2023-05-18T13:16:35.211Z,88.59
2023-05-18T13:19:58.097Z,85.59
2023-05-18T13:23:26.473Z,83.31
2023-05-18T13:26:48.404Z,77.31
2023-05-18T13:30:10.572Z,78.27
2023-05-18T13:33:34.751Z,78.36
2023-05-18T13:36:57.158Z,79.84
2023-05-18T13:40:20.213Z,81.48
2023-05-18T13:43:45.222Z,82.70
2023-05-18T13:47:07.125Z,82.88
2023-05-18T13:50:31.560Z,88.42
2023-05-18T13:53:55.926Z,86.28
2023-05-18T13:57:17.554Z,83.16
2023-05-18T14:00:39.281Z,81.60
2023-05-18T14:04:03.223Z,83.36
2023-05-18T14:07:25.210Z,79.40
2023-05-18T14:10:48.937Z,83.77
2023-05-18T14:14:10.888Z,81.55
2023-05-18T14:17:35.419Z,77.62
2023-05-18T14:21:02.255Z,80.06
2023-05-18T14:24:26.217Z,80.01
2023-05-18T14:27:47.838Z,81.53
2023-05-18T14:31:11.979Z,83.15
2023-05-18T14:34:33.655Z,83.12
2023-05-18T14:37:55.317Z,84.01
2023-05-18T14:41:17.016Z,84.03
2023-05-18T14:44:41.234Z,85.12
2023-05-18T14:48:05.254Z,84.93
2023-05-18T14:51:26.948Z,84.05
2023-05-18T14:54:53.510Z,83.98
2023-05-18T14:58:15.188Z,84.47
2023-05-18T15:01:36.918Z,83.53
2023-05-18T15:04:58.602Z,83.77
2023-05-18T15:08:22.716Z,84.56
2023-05-18T15:11:49.354Z,84.59
2023-05-18T15:15:13.968Z,89.28
2023-05-18T15:18:38.342Z,87.71
2023-05-18T15:22:02.765Z,85.66
2023-05-18T15:25:27.158Z,85.40
2023-05-18T15:28:49.393Z,83.05
2023-05-18T15:32:13.744Z,84.23
2023-05-18T15:35:36.435Z,84.48
2023-05-18T15:39:05.196Z,81.09
2023-05-18T15:42:29.067Z,80.18
2023-05-18T15:45:50.739Z,81.05
2023-05-18T15:49:12.557Z,82.54
2023-05-18T15:52:34.138Z,84.14
2023-05-18T15:55:59.049Z,84.48
2023-05-18T15:59:23.229Z,85.58
2023-05-18T16:02:44.977Z,85.51
2023-05-18T16:06:06.876Z,85.98
2023-05-18T16:09:31.107Z,86.64
2023-05-18T16:13:00.480Z,86.64
2023-05-18T16:16:27.098Z,87.60
2023-05-18T16:19:48.755Z,91.30
2023-05-18T16:23:10.999Z,91.32
2023-05-18T16:26:40.021Z,89.69
2023-05-18T16:30:04.470Z,88.04
2023-05-18T16:33:27.918Z,87.11
2023-05-18T16:36:49.866Z,87.22
2023-05-18T16:40:11.824Z,86.72
2023-05-18T16:43:34.290Z,87.35
2023-05-18T16:46:56.030Z,88.29
2023-05-18T16:50:20.133Z,87.05
2023-05-18T16:53:42.693Z,86.39
2023-05-18T16:57:05.202Z,86.05
2023-05-18T17:00:27.026Z,87.54
2023-05-18T17:03:48.917Z,88.09
2023-05-18T17:07:11.454Z,82.18
2023-05-18T17:10:35.811Z,84.39
2023-05-18T17:14:01.486Z,86.17
2023-05-18T17:17:23.752Z,86.60
2023-05-18T17:20:45.401Z,88.46
2023-05-18T17:24:07.596Z,89.69
2023-05-18T17:27:29.289Z,90.26
2023-05-18T17:30:53.592Z,89.91
2023-05-18T17:34:17.750Z,90.17
2023-05-18T17:37:40.360Z,90.67
2023-05-18T17:41:04.213Z,90.91
2023-05-18T17:44:26.564Z,90.86
2023-05-18T17:47:48.227Z,91.25
2023-05-18T17:51:12.155Z,96.54
2023-05-18T17:54:33.815Z,95.35
2023-05-18T17:57:55.521Z,92.55
2023-05-18T18:01:19.943Z,91.73
2023-05-18T18:04:41.595Z,90.38
2023-05-18T18:08:03.293Z,90.92
2023-05-18T18:11:26.362Z,90.53
2023-05-18T18:14:50.500Z,89.93
2023-05-18T18:18:12.309Z,85.48
2023-05-18T18:21:34.098Z,86.32
2023-05-18T18:24:58.472Z,87.82
2023-05-18T18:28:20.475Z,88.20
2023-05-18T18:31:47.108Z,89.05
2023-05-18T18:35:11.029Z,89.65
2023-05-18T18:38:33.985Z,89.59
2023-05-18T18:41:55.871Z,90.63
2023-05-18T18:45:17.588Z,90.35
2023-05-18T18:48:39.259Z,90.55
2023-05-18T18:52:00.985Z,91.57
2023-05-18T18:55:28.119Z,92.23
2023-05-18T18:58:49.772Z,97.68
2023-05-18T19:02:11.720Z,97.04
2023-05-18T19:05:33.951Z,94.35
2023-05-18T19:08:55.912Z,93.49
2023-05-18T19:12:20.000Z,92.19
2023-05-18T19:15:41.759Z,86.94
2023-05-18T19:19:08.745Z,87.87
2023-05-18T19:22:32.836Z,89.03
2023-05-18T19:25:55.124Z,90.29
2023-05-18T19:29:16.848Z,91.00
2023-05-18T19:32:38.582Z,91.75
2023-05-18T19:36:05.523Z,91.97
2023-05-18T19:39:27.193Z,92.58
2023-05-18T19:42:49.281Z,92.85
2023-05-18T19:46:13.544Z,91.71
2023-05-18T19:49:37.525Z,91.73
2023-05-18T19:53:03.660Z,91.64
2023-05-18T19:56:25.488Z,92.34
2023-05-18T19:59:47.729Z,92.72
2023-05-18T20:03:09.519Z,92.98
2023-05-18T20:06:32.413Z,93.46
2023-05-18T20:09:56.425Z,93.16
2023-05-18T20:13:20.774Z,93.29
2023-05-18T20:16:45.646Z,92.73
2023-05-18T20:20:08.339Z,92.95
2023-05-18T20:23:35.507Z,92.77
2023-05-18T20:26:57.211Z,93.25
2023-05-18T20:30:21.031Z,93.53
2023-05-18T20:33:49.746Z,93.25
2023-05-18T20:37:14.013Z,93.18
2023-05-18T20:40:38.354Z,93.04
2023-05-18T20:44:02.077Z,92.43
2023-05-18T20:47:27.471Z,92.86
2023-05-18T20:50:52.886Z,92.48
2023-05-18T20:54:16.602Z,92.31
2023-05-18T20:57:44.917Z,93.13
2023-05-18T21:01:10.876Z,93.69
2023-05-18T21:04:37.390Z,92.85
2023-05-18T21:07:59.088Z,92.88
2023-05-18T21:11:21.156Z,92.85
2023-05-18T21:14:43.047Z,92.71
2023-05-18T21:18:04.841Z,91.90
2023-05-18T21:21:27.678Z,91.67
2023-05-18T21:24:51.734Z,91.99
2023-05-18T21:28:13.676Z,91.58
2023-05-18T21:31:37.774Z,91.38
2023-05-18T21:34:59.846Z,90.96
2023-05-18T21:38:24.292Z,90.92
2023-05-18T21:41:48.344Z,90.52
2023-05-18T21:45:13.663Z,89.98
2023-05-18T21:48:35.446Z,89.03
2023-05-18T21:51:58.135Z,88.39
2023-05-18T21:55:19.745Z,88.05
2023-05-18T21:58:41.545Z,88.03
2023-05-18T22:02:06.285Z,88.60
2023-05-18T22:05:27.922Z,89.38
2023-05-18T22:08:50.487Z,89.33
2023-05-18T22:12:12.126Z,89.73
2023-05-18T22:15:38.028Z,89.35
2023-05-18T22:19:02.369Z,88.73
2023-05-18T22:25:50.754Z,88.80
2023-05-18T22:29:12.520Z,89.44
2023-05-18T22:32:34.321Z,89.24
2023-05-18T22:35:56.558Z,89.77
2023-05-18T22:39:22.934Z,89.99
2023-05-18T22:42:44.954Z,90.38
2023-05-18T22:46:06.849Z,90.68
2023-05-18T22:49:28.488Z,91.03
2023-05-18T22:52:50.353Z,91.62
2023-05-18T22:56:12.081Z,91.04
2023-05-18T22:59:34.752Z,88.62
2023-05-18T23:02:56.689Z,87.89
2023-05-18T23:06:22.464Z,88.45
2023-05-18T23:09:46.493Z,89.07
2023-05-18T23:13:08.175Z,89.79
2023-05-18T23:16:30.504Z,90.40
2023-05-18T23:19:53.808Z,90.28
2023-05-18T23:23:15.489Z,90.92
2023-05-18T23:26:40.490Z,90.89
2023-05-18T23:30:02.413Z,91.75
2023-05-18T23:33:29.155Z,91.79
2023-05-18T23:36:53.716Z,92.20
2023-05-18T23:40:17.856Z,92.50
2023-05-18T23:43:42.245Z,92.40
2023-05-18T23:47:06.842Z,92.07
2023-05-18T23:50:28.797Z,92.02
2023-05-18T23:53:51.454Z,92.21
2023-05-18T23:57:18.369Z,92.07
